Flight Track Log - Related Links

Times and Time Zones

All times are in EDT time to prevent confusion due to time zone crossing. See the FDX1166 flight status page for this flight to view local times or setup timezone preferences in your user account.

Time Position Orientation Groundspeed Altitude Reporting Facility
EDT Latitude Longitude Course Direction KTS MPH feet Rate Location/Type
Wed 04:34:15 AM 32.9590 -97.3160 185° South 182 209 2,100  Level FlightAware ADS-B
Wed 04:34:45 AM 32.9290 -97.3190 185° South 230 265 3,100 2,250 Climbing FlightAware ADS-B
Wed 04:34:55 AM 32.9160 -97.3200 184° South 241 277 3,600 2,880 Climbing FlightAware ADS-B
Wed 04:35:10 AM 32.9000 -97.3260 197° South 257 296 4,300 3,000 Climbing FlightAware ADS-B
Wed 04:35:25 AM 32.8860 -97.3410 222° Southwest 275 316 5,100 3,200 Climbing FlightAware ADS-B
Wed 04:35:40 AM 32.8780 -97.3630 247° West 288 331 5,900 3,200 Climbing FlightAware ADS-B
Wed 04:35:55 AM 32.8750 -97.3860 261° West 297 342 6,700 3,360 Climbing FlightAware ADS-B
Wed 04:36:30 AM 32.8750 -97.4420 270° West 300 345 8,700 3,491 Climbing FlightAware ADS-B
Wed 04:36:50 AM 32.8740 -97.4780 268° West 303 349 9,900 2,000 Climbing FlightAware ADS-B
Wed 04:37:30 AM 32.8720 -97.5500 268° West 363 418 10,700 2,100 Climbing FlightAware ADS-B
Wed 04:38:10 AM 32.8690 -97.6340 268° West 391 450 12,700 2,894 Climbing FlightAware ADS-B
Wed 04:38:55 AM 32.8660 -97.7250 268° West 408 470 14,800 2,940 Climbing FlightAware ADS-B
Wed 04:39:50 AM 32.8760 -97.8570 275° West 428 493 17,600 2,940 Climbing FlightAware ADS-B
Wed 04:40:35 AM 32.8910 -97.9630 280° West 436 502 19,700 2,682 Climbing FlightAware ADS-B
Wed 04:41:15 AM 32.9040 -98.0620 279° West 448 516 21,400 1,768 Climbing FlightAware ADS-B
Wed 04:42:10 AM 32.9210 -98.1850 279° West 453 521 22,500 2,388 Climbing FlightAware ADS-B
Wed 04:42:53 AM 32.9380 -98.3050 280° West 465 535 25,300 2,100 Climbing FlightAware ADS-B
Wed 04:43:30 AM 32.9490 -98.3850 279° West 465 535 25,300  Level FlightAware ADS-B
Wed 04:44:18 AM 32.9630 -98.4880 279° West 465 535 25,300  Level FlightAware ADS-B
Wed 04:44:54 AM 32.9730 -98.5660 279° West 465 535 25,300 4,143 Level FlightAware ADS-B
Wed 04:45:42 AM 33.0000 -98.7490 280° West 480 552 31,100 5,114 Climbing FlightAware ADS-B
Wed 04:46:22 AM 33.0140 -98.8500 279° West 472 543 32,800 2,429 Climbing FlightAware ADS-B
Wed 04:47:06 AM 33.0290 -98.9620 279° West 464 534 34,500 2,318 Climbing FlightAware ADS-B
Wed 04:47:50 AM 33.0430 -99.0690 279° West 457 526 36,200 2,286 Climbing FlightAware ADS-B
Wed 04:48:30 AM 33.0570 -99.1730 279° West 449 517 37,700 1,923 Climbing FlightAware ADS-B
Wed 04:49:08 AM 33.0690 -99.2630 279° West 447 514 38,700 1,429 Climbing FlightAware ADS-B
Wed 04:49:54 AM 33.0840 -99.3770 279° West 445 512 39,700 966 Climbing FlightAware ADS-B
Wed 04:50:35 AM 33.0960 -99.4740 278° West 446 513 40,100 300 Climbing FlightAware ADS-B
Wed 04:51:14 AM 33.1090 -99.5710 279° West 447 514 40,100  Level FlightAware ADS-B
Wed 04:51:54 AM 33.1210 -99.6660 279° West 447 514 40,100  Level FlightAware ADS-B
Wed 04:52:36 AM 33.1340 -99.7690 279° West 447 514 40,100  Level FlightAware ADS-B
Wed 04:53:16 AM 33.1470 -99.8680 279° West 445 512 40,100  Level FlightAware ADS-B
Wed 04:53:51 AM 33.1570 -99.9510 278° West 444 511 40,100  Level FlightAware ADS-B
Wed 04:54:45 AM 33.1720 -100.0700 279° West 444 511 40,100  Level FlightAware ADS-B
Wed 04:55:33 AM 33.1830 -100.1690 278° West 444 511 40,100  Level FlightAware ADS-B
Wed 04:56:10 AM 33.1920 -100.2460 278° West 444 511 40,100  Level FlightAware ADS-B
Wed 04:57:22 AM 33.2100 -100.3940 278° West 444 511 40,100  Level FlightAware ADS-B
Wed 04:57:59 AM 33.2190 -100.4710 278° West 444 511 40,100  Level FlightAware ADS-B
Wed 04:58:35 AM 33.2280 -100.5450 278° West 444 511 40,100  Level FlightAware ADS-B
Wed 04:59:23 AM 33.2390 -100.6440 278° West 444 511 40,100  Level FlightAware ADS-B
Wed 05:00:45 AM 33.2590 -100.8140 278° West 444 511 40,100  Level FlightAware ADS-B
Wed 05:02:13 AM 33.2800 -100.9960 278° West 444 511 40,100  Level FlightAware ADS-B
Wed 05:02:48 AM 33.2890 -101.0680 279° West 444 511 40,100  Level FlightAware ADS-B
Wed 05:03:36 AM 33.3010 -101.1680 278° West 444 511 40,100  Level FlightAware ADS-B
Wed 05:04:13 AM 33.3100 -101.2440 278° West 444 511 40,100  Level FlightAware ADS-B
Wed 05:05:13 AM 33.0790 -101.6160 234° Southwest 473 544 40,100  Level FlightAware ADS-B
Wed 05:05:53 AM 33.0900 -101.7160 278° West 470 541 40,100  Level FlightAware ADS-B
Wed 05:06:29 AM 33.0990 -101.7950 278° West 470 541 40,100  Level FlightAware ADS-B
Wed 05:07:11 AM 33.1180 -101.9210 280° West 457 526 40,100  Level FlightAware ADS-B
Wed 05:07:45 AM 33.1300 -102.0100 279° West 454 522 40,100  Level FlightAware ADS-B
Wed 05:08:35 AM 33.1450 -102.1310 278° West 452 520 40,100  Level FlightAware ADS-B
Wed 05:09:13 AM 33.1550 -102.2120 278° West 451 519 40,100  Level FlightAware ADS-B
Wed 05:10:15 AM 33.1700 -102.3420 278° West 451 519 40,100  Level FlightAware ADS-B
Wed 05:10:52 AM 33.1790 -102.4200 278° West 451 519 40,100  Level FlightAware ADS-B
Wed 05:11:40 AM 33.1910 -102.5200 278° West 451 519 40,100  Level FlightAware ADS-B
Wed 05:12:28 AM 33.2030 -102.6210 278° West 451 519 40,100  Level FlightAware ADS-B
Wed 05:13:04 AM 33.2120 -102.6970 278° West 451 519 40,100  Level FlightAware ADS-B
Wed 05:13:52 AM 33.2240 -102.7980 278° West 451 519 40,100  Level FlightAware ADS-B
Wed 05:14:28 AM 33.2330 -102.8730 278° West 451 519 40,100  Level FlightAware ADS-B
Wed 05:15:36 AM 33.2490 -103.0160 278° West 451 519 40,100  Level FlightAware ADS-B
Wed 05:16:54 AM 33.2690 -103.1800 278° West 451 519 40,100  Level FlightAware ADS-B
Wed 05:17:41 AM 33.2800 -103.2790 278° West 451 519 40,100  Level FlightAware ADS-B
Wed 05:18:15 AM 33.2890 -103.3500 279° West 451 519 40,100  Level FlightAware ADS-B
Wed 05:19:04 AM 33.5789 -103.6272 279° West 481 554 40,100  Level Albuquerque Center
Wed 05:20:05 AM 33.6378 -103.7692 297° West 480 552 40,100  Level Albuquerque Center
Wed 05:21:05 AM 33.7069 -103.9403 296° West 477 549 40,100  Level Albuquerque Center
Wed 05:22:05 AM 33.7622 -104.0842 295° West 476 548 40,100  Level Albuquerque Center
Wed 05:23:05 AM 33.8178 -104.2275 295° West 475 547 40,100  Level Albuquerque Center
Wed 05:24:06 AM 33.8736 -104.3764 294° West 474 545 40,100  Level Albuquerque Center
Wed 05:25:06 AM 33.9356 -104.5153 298° West 470 541 40,100  Level Albuquerque Center
Wed 05:26:06 AM 34.0025 -104.6514 301° West 470 541 40,100  Level Albuquerque Center
Wed 05:27:07 AM 34.0553 -104.7706 298° West 472 543 40,100  Level Albuquerque Center
Wed 05:28:07 AM 34.1056 -104.9178 292° West 471 542 40,100  Level Albuquerque Center
Wed 05:29:07 AM 34.1567 -105.0653 293° West 471 542 40,100  Level Albuquerque Center
Wed 05:30:07 AM 34.2075 -105.2117 293° West 470 541 40,100  Level Albuquerque Center
Wed 05:31:08 AM 34.2589 -105.3569 293° West 467 537 40,100  Level Albuquerque Center
Wed 05:32:08 AM 34.3092 -105.5042 292° West 467 537 40,100  Level Albuquerque Center
Wed 05:37:04 AM 34.3750 -106.2880 292° West 481 554 40,100  Level FlightAware ADS-B
Wed 05:37:47 AM 34.3760 -106.4010 271° West 480 552 40,100  Level FlightAware ADS-B
Wed 05:38:46 AM 34.3770 -106.5460 271° West 480 552 40,100  Level FlightAware ADS-B
Wed 05:39:33 AM 34.3790 -106.6830 271° West 483 556 40,100  Level FlightAware ADS-B
Wed 05:40:12 AM 34.3800 -106.7890 271° West 482 555 40,100  Level FlightAware ADS-B
Wed 05:41:06 AM 34.3810 -106.9360 271° West 480 552 40,100  Level FlightAware ADS-B
Wed 05:41:46 AM 34.3810 -107.0460 270° West 480 552 40,100  Level FlightAware ADS-B
Wed 05:42:36 AM 34.3820 -107.1770 271° West 479 551 40,100  Level FlightAware ADS-B
Wed 05:43:27 AM 34.3820 -107.2940 270° West 479 551 40,100  Level FlightAware ADS-B
Wed 05:44:03 AM 34.3820 -107.3760 270° West 479 551 40,100  Level FlightAware ADS-B
Wed 05:44:51 AM 34.3820 -107.4860 270° West 479 551 40,100  Level FlightAware ADS-B
Wed 05:46:33 AM 34.3820 -107.7180 270° West 479 551 40,100  Level FlightAware ADS-B
Wed 05:47:12 AM 34.3820 -107.8070 270° West 479 551 40,100  Level FlightAware ADS-B
Wed 05:47:49 AM 34.3820 -107.8920 270° West 479 551 40,100  Level FlightAware ADS-B
Wed 05:48:37 AM 34.3820 -108.0010 270° West 479 551 40,100  Level FlightAware ADS-B
Wed 05:49:13 AM 34.3820 -108.0840 270° West 479 551 40,100  Level FlightAware ADS-B
Wed 05:49:49 AM 34.3820 -108.1660 270° West 479 551 40,100  Level FlightAware ADS-B
Wed 05:51:02 AM 34.3820 -108.3320 270° West 479 551 40,100  Level FlightAware ADS-B
Wed 05:51:38 AM 34.3820 -108.4150 270° West 479 551 40,100  Level FlightAware ADS-B
Wed 05:52:26 AM 34.3820 -108.5240 270° West 479 551 40,100  Level FlightAware ADS-B
Wed 05:53:07 AM 34.3770 -108.8020 269° West 451 519 40,100  Level FlightAware ADS-B
Wed 05:54:03 AM 34.3760 -108.9410 270° West 450 518 40,100  Level FlightAware ADS-B
Wed 05:54:39 AM 34.3750 -109.0320 269° West 450 518 40,100  Level FlightAware ADS-B
Wed 05:55:21 AM 34.3740 -109.1350 269° West 451 519 40,100  Level FlightAware ADS-B
Wed 05:56:05 AM 34.3720 -109.2480 269° West 451 519 40,100  Level FlightAware ADS-B
Wed 05:56:41 AM 34.3710 -109.3390 269° West 451 519 40,100  Level FlightAware ADS-B
Wed 05:57:21 AM 34.3690 -109.4420 269° West 451 519 40,100  Level FlightAware ADS-B
Wed 05:58:02 AM 34.3680 -109.5430 269° West 452 520 40,100  Level FlightAware ADS-B
Wed 05:58:45 AM 34.3660 -109.6510 269° West 453 521 40,100  Level FlightAware ADS-B
Wed 05:59:25 AM 34.3640 -109.7530 269° West 453 521 40,100  Level FlightAware ADS-B
Wed 06:00:09 AM 34.3620 -109.8660 269° West 453 521 40,100  Level FlightAware ADS-B
Wed 06:00:49 AM 34.3610 -109.9650 269° West 453 521 40,100  Level FlightAware ADS-B
Wed 06:01:33 AM 34.3580 -110.0790 268° West 455 524 40,100  Level FlightAware ADS-B
Wed 06:02:14 AM 34.3560 -110.1810 269° West 457 526 40,100  Level FlightAware ADS-B
Wed 06:02:57 AM 34.3540 -110.2890 269° West 459 528 40,100  Level FlightAware ADS-B
Wed 06:03:37 AM 34.3520 -110.3940 269° West 461 531 40,100  Level FlightAware ADS-B
Wed 06:04:21 AM 34.3490 -110.5070 268° West 463 533 40,100  Level FlightAware ADS-B
Wed 06:05:01 AM 34.3470 -110.6110 269° West 464 534 40,100  Level FlightAware ADS-B
Wed 06:05:43 AM 34.3440 -110.7220 268° West 464 534 40,100  Level FlightAware ADS-B
Wed 06:06:25 AM 34.3410 -110.8310 268° West 464 534 40,100  Level FlightAware ADS-B
Wed 06:07:11 AM 34.3380 -110.9480 268° West 465 535 40,100  Level FlightAware ADS-B
Wed 06:07:51 AM 34.3350 -111.0540 268° West 465 535 40,100  Level FlightAware ADS-B
Wed 06:08:27 AM 34.3330 -111.1450 269° West 465 535 40,100  Level FlightAware ADS-B
Wed 06:09:07 AM 34.3290 -111.2490 267° West 464 534 40,100  Level FlightAware ADS-B
Wed 06:09:49 AM 34.3260 -111.3610 268° West 464 534 40,100  Level FlightAware ADS-B
Wed 06:10:31 AM 34.3230 -111.4670 268° West 464 534 40,100  Level FlightAware ADS-B
Wed 06:11:42 AM 34.3170 -111.6510 268° West 463 533 40,100  Level FlightAware ADS-B
Wed 06:12:23 AM 34.3140 -111.7510 268° West 463 533 40,100  Level FlightAware ADS-B
Wed 06:13:08 AM 34.3100 -111.8700 268° West 462 532 40,100  Level FlightAware ADS-B
Wed 06:13:48 AM 34.3060 -111.9760 267° West 461 531 40,100  Level FlightAware ADS-B
Wed 06:14:27 AM 34.3020 -112.0710 267° West 462 532 40,100  Level FlightAware ADS-B
Wed 06:14:56 AM 34.3000 -112.1510 268° West 461 531 40,100  Level FlightAware ADS-B
Wed 06:17:09 AM 34.2880 -112.4580 267° West 463 533 40,100  Level FlightAware ADS-B
Wed 06:17:52 AM 34.2830 -112.5710 267° West 462 532 40,100  Level FlightAware ADS-B
Wed 06:18:38 AM 34.2770 -112.7230 267° West 461 531 40,100  Level FlightAware ADS-B
Wed 06:19:16 AM 34.2730 -112.8230 267° West 459 528 40,100  Level FlightAware ADS-B
Wed 06:19:52 AM 34.2690 -112.9130 267° West 459 528 40,100  Level FlightAware ADS-B
Wed 06:20:30 AM 34.2650 -113.0130 267° West 458 527 40,100  Level FlightAware ADS-B
Wed 06:21:14 AM 34.2600 -113.1220 267° West 457 526 40,100  Level FlightAware ADS-B
Wed 06:21:59 AM 34.2550 -113.2370 267° West 454 522 40,100  Level FlightAware ADS-B
Wed 06:22:24 AM 34.2520 -113.2980 267° West 454 522 40,100  Level FlightAware ADS-B
Wed 06:23:06 AM 34.2470 -113.4070 267° West 453 521 40,100  Level FlightAware ADS-B
Wed 06:23:51 AM 34.2410 -113.5200 266° West 452 520 40,100  Level FlightAware ADS-B
Wed 06:24:32 AM 34.2360 -113.6260 267° West 452 520 40,100  Level FlightAware ADS-B
Wed 06:25:12 AM 34.2310 -113.7240 266° West 451 519 40,100  Level FlightAware ADS-B
Wed 06:25:44 AM 34.2250 -113.8070 265° West 450 518 40,100  Level FlightAware ADS-B
Wed 06:26:40 AM 34.2110 -113.9410 263° West 450 518 40,100  Level FlightAware ADS-B
Wed 06:27:20 AM 34.2000 -114.0440 263° West 451 519 40,100  Level FlightAware ADS-B
Wed 06:28:00 AM 34.1900 -114.1460 263° West 451 519 40,100  Level FlightAware ADS-B
Wed 06:28:44 AM 34.1790 -114.2560 263° West 452 520 40,100  Level FlightAware ADS-B
Wed 06:29:28 AM 34.1680 -114.3660 263° West 452 520 40,100  Level FlightAware ADS-B
Wed 06:30:08 AM 34.1590 -114.4640 264° West 454 522 40,100  Level FlightAware ADS-B
Wed 06:30:52 AM 34.1470 -114.5750 263° West 454 522 40,100  Level FlightAware ADS-B
Wed 06:31:34 AM 34.1360 -114.6800 263° West 455 524 40,100  Level FlightAware ADS-B
Wed 06:32:31 AM 34.1220 -114.8070 262° West 455 524 40,100  Level FlightAware ADS-B
Wed 06:33:13 AM 34.1100 -114.9300 263° West 454 522 40,100  Level FlightAware ADS-B
Wed 06:33:53 AM 34.0990 -115.0280 262° West 454 522 40,100  Level FlightAware ADS-B
Wed 06:34:28 AM 34.0910 -115.1050 263° West 40,100  Level FlightAware ADS-B
Wed 06:35:11 AM 34.0780 -115.2260 263° West 453 521 40,100  Level FlightAware ADS-B
Wed 06:35:51 AM 34.0670 -115.3260 262° West 454 522 40,100  Level FlightAware ADS-B
Wed 06:36:29 AM 34.0560 -115.4220 262° West 454 522 40,100 -289 Level FlightAware ADS-B
Wed 06:37:14 AM 34.0460 -115.5200 263° West 454 522 39,700 -1,412 Descending FlightAware ADS-B
Wed 06:37:54 AM 34.0340 -115.6270 262° West 454 522 38,100 -2,442 Descending FlightAware ADS-B
Wed 06:38:40 AM 34.0210 -115.7400 262° West 456 525 36,200 -2,753 Descending FlightAware ADS-B
Wed 06:39:19 AM 34.0100 -115.8410 263° West 459 528 34,200 -3,214 Descending FlightAware ADS-B
Wed 06:40:04 AM 33.9960 -115.9530 261° West 463 533 31,700 -3,600 Descending FlightAware ADS-B
Wed 06:40:44 AM 33.9840 -116.0580 262° West 471 542 29,100 -3,975 Descending FlightAware ADS-B
Wed 06:41:24 AM 33.9720 -116.1610 262° West 482 555 26,400 -3,750 Descending FlightAware ADS-B
Wed 06:42:04 AM 33.9590 -116.2690 262° West 473 544 24,100 -2,329 Descending FlightAware ADS-B
Wed 06:42:49 AM 33.9460 -116.3730 261° West 467 537 23,100 -3,297 Descending FlightAware ADS-B
Wed 06:43:35 AM 33.9310 -116.5090 262° West 442 509 19,100 -4,159 Descending FlightAware ADS-B
Wed 06:44:17 AM 33.9190 -116.6080 262° West 427 491 17,000 -2,892 Descending FlightAware ADS-B
Wed 06:44:58 AM 33.9080 -116.7020 262° West 408 470 15,100 -1,976 Descending FlightAware ADS-B
Wed 06:45:42 AM 33.8960 -116.7940 261° West 371 427 14,200 -1,063 Descending FlightAware ADS-B
Wed 06:46:17 AM 33.8920 -116.8640 266° West 345 397 13,700 -1,000 Descending FlightAware ADS-B
Wed 06:47:06 AM 33.9150 -116.9510 288° West 309 356 12,800 -1,618 Descending FlightAware ADS-B
Wed 06:47:46 AM 33.9370 -117.0130 293° West 297 342 11,300 -2,325 Descending FlightAware ADS-B
Wed 06:48:26 AM 33.9580 -117.0740 293° West 296 341 9,700 -2,261 Descending FlightAware ADS-B
Wed 06:48:55 AM 33.9730 -117.1180 292° West 291 335 8,700 -1,900 Descending FlightAware ADS-B
Wed 06:49:26 AM 33.9880 -117.1640 291° West 283 326 7,800 -1,831 Descending FlightAware ADS-B
Wed 06:49:54 AM 34.0020 -117.2050 292° West 277 319 6,900 -2,000 Descending FlightAware ADS-B
Wed 06:50:23 AM 34.0160 -117.2450 293° West 265 305 5,900 -1,588 Descending FlightAware ADS-B
Wed 06:51:02 AM 34.0330 -117.2970 292° West 231 266 5,100 -1,154 Descending FlightAware ADS-B
Wed 06:51:15 AM 34.0380 -117.3110 293° West 215 247 4,900 -818 Descending FlightAware ADS-B
Wed 06:51:46 AM 34.0490 -117.3440 292° West 192 221 4,500 -712 Descending FlightAware ADS-B
Wed 06:52:14 AM 34.0540 -117.3720 282° West 195 224 4,200 -875 Descending FlightAware ADS-B
Wed 06:52:34 AM 34.0550 -117.3950 273° West 197 227 3,800 -1,071 Descending FlightAware ADS-B
Wed 06:53:10 AM 34.0550 -117.4330 270° West 183 211 3,200 -649 Descending FlightAware ADS-B
Wed 06:53:48 AM 34.0550 -117.4660 270° West 178 205 3,000 -600 Descending FlightAware ADS-B
Wed 06:54:20 AM 34.0558 -117.4883 270° West 190 219 2,500 -848 Descending Los Angeles Center
Wed 06:55:20 AM 34.0567 -117.5386 271° West 170 196 1,700 -750 Descending Los Angeles Center
Wed 06:56:20 AM 34.0564 -117.5881 270° West 140 161 1,000 -700 Descending Los Angeles Center
Wed 06:58:00 AM 34.0500 -117.6000 275° West  Level FlightAware Approximate

Login

Don't have an account? Register now (free) for customized features, flight alerts, and more!